Time;durP1;ratioP1;P1;durP2;ratioP2;P2;SDS_P1;SDS_P2;PMS_P1;PMS_P2;Temp;Humidity;BMP_temperature;BMP_pressure;BME280_temperature;BME280_humidity;BME280_pressure;Samples;Min_cycle;Max_cycle;Signal;HPM_P1;HPM_P2
2024/01/05 00:01:47;;;;;;;11.05;3.22;;;9.10;99.90;;;;;;5002092;28;20030;-85
2024/01/05 00:04:13;;;;;;;11.00;3.60;;;9.10;99.90;;;;;;5002250;28;20462;-85
2024/01/05 00:06:38;;;;;;;7.10;3.15;;;9.10;99.90;;;;;;5002228;28;20362;-85
2024/01/05 00:09:06;;;;;;;11.68;3.35;;;9.00;99.90;;;;;;5036620;28;20088;-85
2024/01/05 00:11:34;;;;;;;12.50;3.45;;;9.10;99.90;;;;;;5037073;28;20033;-85
2024/01/05 00:14:00;;;;;;;11.13;3.85;;;9.10;99.90;;;;;;5022943;28;20028;-83
2024/01/05 00:16:27;;;;;;;9.98;3.38;;;9.10;99.90;;;;;;5025020;28;20097;-83
2024/01/05 00:18:52;;;;;;;9.10;3.92;;;9.10;99.90;;;;;;5020931;28;20029;-84
2024/01/05 00:21:20;;;;;;;10.35;4.10;;;9.10;99.90;;;;;;5025122;28;20389;-83
2024/01/05 00:23:46;;;;;;;10.82;3.72;;;9.10;99.90;;;;;;5036456;28;20049;-83
2024/01/05 00:26:12;;;;;;;10.25;3.75;;;9.10;99.90;;;;;;5017777;28;20025;-83
2024/01/05 00:28:38;;;;;;;10.68;3.38;;;9.10;99.90;;;;;;5017008;28;20029;-84
2024/01/05 00:31:03;;;;;;;12.05;3.53;;;9.10;99.90;;;;;;5016875;28;20029;-84
2024/01/05 00:33:29;;;;;;;11.90;3.67;;;9.10;99.90;;;;;;5016646;28;20028;-84
2024/01/05 00:35:55;;;;;;;9.48;3.33;;;9.10;99.90;;;;;;5000976;28;20095;-83
2024/01/05 00:38:21;;;;;;;7.88;3.53;;;9.10;99.90;;;;;;5017243;28;20522;-83
2024/01/05 00:40:47;;;;;;;8.00;3.10;;;9.10;99.90;;;;;;4999894;28;20124;-83
2024/01/05 00:43:12;;;;;;;9.23;3.40;;;9.10;99.90;;;;;;5017021;28;20041;-84
2024/01/05 00:45:38;;;;;;;8.77;3.42;;;9.10;99.90;;;;;;5016236;28;20025;-84
2024/01/05 00:48:04;;;;;;;11.60;4.30;;;9.10;99.90;;;;;;5000152;28;20030;-84
2024/01/05 00:50:30;;;;;;;9.48;3.95;;;9.20;99.90;;;;;;5016418;28;20227;-84
2024/01/05 00:52:55;;;;;;;8.07;3.80;;;9.10;99.90;;;;;;4999800;28;20492;-84
2024/01/05 00:55:21;;;;;;;9.77;3.97;;;9.20;99.90;;;;;;5016059;28;20025;-84
2024/01/05 00:57:46;;;;;;;9.85;4.05;;;9.10;99.90;;;;;;5032890;28;20064;-84
2024/01/05 01:00:13;;;;;;;10.23;4.00;;;9.20;99.90;;;;;;5016456;28;20029;-85
2024/01/05 01:02:40;;;;;;;12.05;4.78;;;9.20;99.90;;;;;;5016255;28;20083;-84
2024/01/05 01:05:06;;;;;;;11.50;4.40;;;9.10;99.90;;;;;;5000513;28;20033;-84
2024/01/05 01:07:32;;;;;;;10.77;3.92;;;9.10;99.90;;;;;;5000102;28;20373;-84
2024/01/05 01:09:57;;;;;;;9.50;4.20;;;9.10;99.90;;;;;;5000026;28;20033;-85
2024/01/05 01:12:25;;;;;;;10.55;3.65;;;9.10;99.90;;;;;;5032822;28;20061;-84
2024/01/05 01:14:51;;;;;;;9.10;3.38;;;9.10;99.90;;;;;;5000495;28;20025;-84
2024/01/05 01:17:17;;;;;;;11.25;4.38;;;9.10;99.90;;;;;;5000293;28;20099;-83
2024/01/05 01:19:43;;;;;;;11.23;3.92;;;9.10;99.90;;;;;;5033304;28;20033;-84
2024/01/05 01:22:08;;;;;;;10.77;4.45;;;9.10;99.90;;;;;;5050281;28;20029;-84
2024/01/05 01:24:34;;;;;;;9.40;3.90;;;9.10;99.90;;;;;;5023188;28;20386;-84
2024/01/05 01:27:00;;;;;;;11.20;4.45;;;9.10;99.90;;;;;;5010776;28;20032;-84
2024/01/05 01:29:25;;;;;;;8.52;3.85;;;9.00;99.90;;;;;;5021022;28;20029;-84
2024/01/05 01:31:51;;;;;;;9.27;3.65;;;9.00;99.90;;;;;;5036286;28;20128;-84
2024/01/05 01:34:17;;;;;;;11.77;4.15;;;9.00;99.90;;;;;;5014274;28;20030;-84
2024/01/05 01:36:42;;;;;;;10.35;4.32;;;9.00;99.90;;;;;;5017931;28;20041;-84
2024/01/05 01:39:08;;;;;;;10.95;3.45;;;8.90;99.90;;;;;;5066931;28;20034;-83
2024/01/05 01:41:33;;;;;;;7.65;3.53;;;8.90;99.90;;;;;;5021624;28;20033;-84
2024/01/05 01:43:59;;;;;;;9.65;3.28;;;8.90;99.90;;;;;;5017863;28;20033;-84
2024/01/05 01:46:25;;;;;;;11.23;3.63;;;8.90;99.90;;;;;;5009228;28;20390;-85
2024/01/05 01:48:51;;;;;;;10.32;3.40;;;8.80;99.90;;;;;;5010665;28;20511;-85
2024/01/05 01:51:21;;;;;;;8.60;3.70;;;8.80;99.90;;;;;;5029365;28;20097;-84
2024/01/05 01:53:48;;;;;;;9.88;2.97;;;8.80;99.90;;;;;;5012245;28;20061;-85
2024/01/05 01:56:14;;;;;;;12.07;3.58;;;8.80;99.90;;;;;;5004327;28;20541;-85
2024/01/05 01:58:42;;;;;;;7.13;2.97;;;8.80;99.90;;;;;;5004130;28;20109;-85
2024/01/05 02:01:08;;;;;;;8.70;3.22;;;8.90;99.90;;;;;;5020231;28;20148;-85
2024/01/05 02:03:34;;;;;;;7.68;3.08;;;8.90;99.90;;;;;;5019731;28;20072;-84
2024/01/05 02:06:00;;;;;;;9.30;3.17;;;8.90;99.90;;;;;;5003458;28;20101;-84
2024/01/05 02:08:27;;;;;;;5.95;2.42;;;9.00;99.90;;;;;;5053596;28;20531;-85
2024/01/05 02:10:53;;;;;;;10.27;3.08;;;9.00;99.90;;;;;;5020308;28;20026;-84
2024/01/05 02:13:22;;;;;;;8.00;2.75;;;9.00;99.90;;;;;;5003867;28;20445;-83
2024/01/05 02:15:47;;;;;;;13.77;3.03;;;9.00;99.90;;;;;;5021004;28;20037;-85
2024/01/05 02:18:14;;;;;;;8.80;2.38;;;9.10;99.90;;;;;;5003966;28;20037;-85
2024/01/05 02:20:44;;;;;;;8.60;2.30;;;9.10;99.90;;;;;;5020124;28;20117;-84
2024/01/05 02:23:23;;;;;;;9.23;2.67;;;9.10;99.90;;;;;;5037009;28;20105;-84
2024/01/05 02:25:49;;;;;;;9.35;2.15;;;9.10;99.90;;;;;;5019941;28;20033;-84
2024/01/05 02:28:15;;;;;;;10.15;2.55;;;9.20;99.90;;;;;;5001770;28;20072;-84
2024/01/05 02:30:40;;;;;;;6.35;2.17;;;9.20;99.90;;;;;;5003174;28;20378;-85
2024/01/05 02:33:06;;;;;;;8.20;2.30;;;9.20;99.90;;;;;;5003795;28;20030;-85
2024/01/05 02:35:32;;;;;;;6.78;2.30;;;9.20;99.90;;;;;;5003174;28;20121;-85
2024/01/05 02:37:57;;;;;;;8.35;2.95;;;9.20;99.90;;;;;;5020058;28;20029;-85
2024/01/05 02:40:26;;;;;;;4.78;2.20;;;9.30;99.90;;;;;;5035672;28;20041;-84
2024/01/05 02:42:52;;;;;;;9.38;2.50;;;9.30;99.90;;;;;;5019009;28;20113;-83
2024/01/05 02:45:21;;;;;;;8.68;2.72;;;9.30;99.90;;;;;;5002702;28;20536;-84
2024/01/05 02:47:56;;;;;;;9.13;2.67;;;9.30;99.90;;;;;;5052397;28;20029;-84
2024/01/05 02:50:29;;;;;;;8.55;3.10;;;9.30;99.90;;;;;;5037159;28;20033;-84
2024/01/05 02:52:54;;;;;;;5.80;2.15;;;9.30;99.90;;;;;;5003294;28;20034;-84
2024/01/05 02:55:20;;;;;;;6.68;2.00;;;9.30;99.90;;;;;;5036040;28;20140;-84
2024/01/05 02:57:45;;;;;;;8.98;2.50;;;9.30;99.90;;;;;;5003659;28;20022;-84
2024/01/05 03:00:11;;;;;;;7.28;2.50;;;9.30;99.90;;;;;;5003209;28;20034;-84
2024/01/05 03:02:37;;;;;;;4.22;1.63;;;9.30;99.90;;;;;;5034393;28;20025;-84
2024/01/05 03:05:04;;;;;;;5.72;2.42;;;9.40;99.90;;;;;;5019600;28;20025;-84
2024/01/05 03:07:30;;;;;;;7.32;2.28;;;9.40;99.90;;;;;;5003163;28;20372;-84
2024/01/05 03:09:56;;;;;;;5.82;2.05;;;9.40;99.90;;;;;;5003838;28;20104;-84
2024/01/05 03:12:22;;;;;;;7.72;2.53;;;9.40;99.90;;;;;;5010646;28;20060;-84
2024/01/05 03:14:47;;;;;;;7.38;2.40;;;9.40;99.90;;;;;;5042669;28;20017;-84
2024/01/05 03:17:13;;;;;;;7.03;2.15;;;9.40;99.90;;;;;;5036508;28;20048;-84
2024/01/05 03:19:38;;;;;;;6.82;1.92;;;9.40;99.90;;;;;;5011746;28;20036;-83
2024/01/05 03:22:04;;;;;;;4.75;2.05;;;9.40;99.90;;;;;;5004296;28;20041;-84
2024/01/05 03:24:30;;;;;;;5.47;2.22;;;9.50;99.90;;;;;;5051019;28;20057;-84
2024/01/05 03:26:55;;;;;;;8.27;2.10;;;9.50;99.90;;;;;;5019471;28;20420;-84
2024/01/05 03:29:21;;;;;;;5.75;2.45;;;9.40;99.90;;;;;;5018261;28;20040;-84
2024/01/05 03:31:47;;;;;;;7.18;2.38;;;9.50;99.90;;;;;;5002477;28;20389;-84
2024/01/05 03:34:14;;;;;;;11.98;3.78;;;9.50;99.90;;;;;;5018622;28;20025;-84
2024/01/05 03:36:40;;;;;;;10.52;2.83;;;9.50;99.90;;;;;;5018161;28;20032;-84
2024/01/05 03:39:09;;;;;;;4.53;1.83;;;9.50;99.90;;;;;;5018222;28;20078;-85
2024/01/05 03:41:34;;;;;;;6.60;2.13;;;9.50;99.90;;;;;;5018348;28;20493;-84
2024/01/05 03:44:00;;;;;;;6.35;2.00;;;9.50;99.90;;;;;;5036416;28;20022;-84
2024/01/05 03:46:26;;;;;;;6.70;2.65;;;9.40;99.90;;;;;;5018299;28;20108;-83
2024/01/05 03:48:52;;;;;;;6.60;2.90;;;9.50;99.90;;;;;;5001976;28;20029;-83
2024/01/05 03:51:18;;;;;;;8.65;2.30;;;9.40;99.90;;;;;;5017902;28;20036;-82
2024/01/05 03:53:44;;;;;;;8.07;2.55;;;9.40;99.90;;;;;;5001807;28;20032;-84
2024/01/05 03:56:10;;;;;;;7.97;2.25;;;9.40;99.90;;;;;;5018079;28;20025;-85
2024/01/05 03:58:35;;;;;;;9.00;2.42;;;9.40;99.90;;;;;;5001068;28;20116;-83
2024/01/05 04:01:02;;;;;;;8.00;2.33;;;9.40;99.90;;;;;;5000964;28;20072;-84
2024/01/05 04:03:28;;;;;;;7.43;2.08;;;9.40;99.90;;;;;;5001334;28;20036;-84
2024/01/05 04:05:54;;;;;;;9.45;3.00;;;9.30;99.90;;;;;;5017519;28;20025;-84
2024/01/05 04:08:19;;;;;;;6.30;2.20;;;9.30;99.90;;;;;;5017873;28;20461;-85
2024/01/05 04:10:45;;;;;;;8.52;2.42;;;9.30;99.90;;;;;;5001158;28;20384;-84
2024/01/05 04:13:11;;;;;;;6.50;1.92;;;9.30;99.90;;;;;;5016814;28;20453;-84
2024/01/05 04:15:38;;;;;;;8.90;2.47;;;9.30;99.90;;;;;;5017187;28;20371;-83
2024/01/05 04:18:04;;;;;;;9.48;2.00;;;9.30;99.90;;;;;;5017361;28;20025;-83
2024/01/05 04:20:30;;;;;;;5.00;2.20;;;9.30;99.90;;;;;;5017896;28;20029;-83
2024/01/05 04:22:56;;;;;;;9.55;2.47;;;9.30;99.90;;;;;;5019876;28;20045;-83
2024/01/05 04:25:21;;;;;;;8.20;2.33;;;9.30;99.90;;;;;;5005625;28;20049;-83
2024/01/05 04:27:47;;;;;;;7.22;2.20;;;9.30;99.90;;;;;;5049051;28;20045;-84
2024/01/05 04:30:13;;;;;;;7.78;2.22;;;9.30;99.90;;;;;;5011161;28;20053;-84
2024/01/05 04:32:38;;;;;;;8.65;2.28;;;9.30;99.90;;;;;;5024361;28;20535;-84
2024/01/05 04:35:05;;;;;;;7.32;2.33;;;9.30;99.90;;;;;;5030523;28;20465;-85
2024/01/05 04:37:30;;;;;;;7.05;2.00;;;9.30;99.90;;;;;;5019323;28;20116;-84
2024/01/05 04:39:56;;;;;;;10.77;1.80;;;9.30;99.90;;;;;;5015136;28;20025;-84
2024/01/05 04:42:22;;;;;;;8.57;2.45;;;9.30;99.90;;;;;;5041564;28;20016;-84
2024/01/05 04:44:49;;;;;;;9.20;2.20;;;9.30;99.90;;;;;;5025130;28;20020;-83
2024/01/05 04:47:15;;;;;;;8.82;2.72;;;9.30;99.90;;;;;;5017677;28;20030;-84
2024/01/05 04:49:41;;;;;;;5.57;1.73;;;9.30;99.90;;;;;;5008287;28;20092;-82
2024/01/05 04:52:07;;;;;;;7.68;2.55;;;9.30;99.90;;;;;;5005150;28;20140;-83
2024/01/05 04:54:33;;;;;;;10.02;1.92;;;9.30;99.90;;;;;;5018103;28;20028;-83
2024/01/05 04:56:58;;;;;;;6.82;2.03;;;9.40;99.90;;;;;;5034816;28;20446;-83
2024/01/05 04:59:24;;;;;;;5.18;1.70;;;9.30;99.90;;;;;;5001298;28;20029;-84
2024/01/05 05:01:50;;;;;;;6.03;1.85;;;9.40;99.90;;;;;;5017115;28;20109;-84
2024/01/05 05:04:17;;;;;;;7.63;2.35;;;9.30;99.90;;;;;;5034337;28;20028;-85
2024/01/05 05:06:44;;;;;;;8.38;2.35;;;9.40;99.90;;;;;;5000605;28;20495;-83
2024/01/05 05:09:10;;;;;;;5.78;2.00;;;9.40;99.90;;;;;;5017288;28;20053;-84
2024/01/05 05:11:39;;;;;;;5.47;1.98;;;9.40;99.90;;;;;;5016554;28;20473;-84
2024/01/05 05:14:05;;;;;;;7.30;2.45;;;9.40;99.90;;;;;;5017070;28;20021;-84
2024/01/05 05:16:31;;;;;;;6.00;1.65;;;9.40;99.90;;;;;;5000519;28;20034;-84
2024/01/05 05:18:57;;;;;;;5.88;2.00;;;9.40;99.90;;;;;;5016914;28;20095;-85
2024/01/05 05:21:23;;;;;;;5.30;1.40;;;9.40;99.90;;;;;;5049927;28;20042;-84
2024/01/05 05:23:49;;;;;;;7.97;2.15;;;9.40;99.90;;;;;;5016848;28;20092;-82
2024/01/05 05:26:15;;;;;;;7.20;2.10;;;9.40;99.90;;;;;;5016349;28;20036;-83
2024/01/05 05:28:40;;;;;;;7.32;2.08;;;9.40;99.90;;;;;;5017334;28;20488;-83
2024/01/05 05:31:06;;;;;;;7.20;2.25;;;9.40;99.90;;;;;;5032647;28;20033;-84
2024/01/05 05:33:31;;;;;;;7.90;2.38;;;9.40;99.90;;;;;;5016939;28;20075;-84
2024/01/05 05:35:57;;;;;;;5.70;1.70;;;9.30;99.90;;;;;;5000162;28;20028;-84
2024/01/05 05:38:23;;;;;;;8.10;1.85;;;9.30;99.90;;;;;;5033838;28;20087;-84
2024/01/05 05:40:48;;;;;;;5.80;1.85;;;9.30;99.90;;;;;;5000504;28;20477;-84
2024/01/05 05:43:14;;;;;;;5.53;2.05;;;9.30;99.90;;;;;;5000178;28;20035;-84
2024/01/05 05:45:41;;;;;;;8.77;1.65;;;9.30;99.90;;;;;;5016550;28;20132;-84
2024/01/05 05:48:07;;;;;;;4.43;1.58;;;9.30;99.90;;;;;;5017363;28;20105;-84
2024/01/05 05:50:35;;;;;;;5.30;1.60;;;9.30;99.90;;;;;;5049314;28;20065;-83
2024/01/05 05:53:01;;;;;;;7.75;1.83;;;9.30;99.90;;;;;;5000398;28;20033;-84
2024/01/05 05:55:27;;;;;;;6.75;1.52;;;9.30;99.90;;;;;;4999656;28;20466;-83
2024/01/05 05:57:52;;;;;;;7.57;1.95;;;9.30;99.90;;;;;;4999482;28;20115;-84
2024/01/05 06:00:20;;;;;;;3.40;1.65;;;9.20;99.90;;;;;;5015801;28;20489;-84
2024/01/05 06:02:46;;;;;;;7.05;1.77;;;9.20;99.90;;;;;;5032286;28;20091;-83
2024/01/05 06:05:12;;;;;;;4.18;1.58;;;9.20;99.90;;;;;;4999722;28;20513;-85
2024/01/05 06:07:38;;;;;;;6.32;1.90;;;9.20;99.90;;;;;;4999791;28;20026;-83
2024/01/05 06:10:05;;;;;;;6.53;1.92;;;9.20;99.90;;;;;;5001353;28;20044;-83
2024/01/05 06:12:30;;;;;;;6.30;1.35;;;9.20;99.90;;;;;;5018001;28;20040;-84
2024/01/05 06:14:56;;;;;;;5.25;1.83;;;9.20;99.90;;;;;;5022176;28;20010;-84
2024/01/05 06:17:22;;;;;;;3.67;1.40;;;9.20;99.90;;;;;;5029690;28;20052;-84
2024/01/05 06:19:47;;;;;;;4.53;1.50;;;9.30;99.90;;;;;;5040174;28;20116;-84
2024/01/05 06:22:15;;;;;;;3.38;1.42;;;9.20;99.90;;;;;;5015748;28;20465;-84
2024/01/05 06:24:44;;;;;;;3.65;1.40;;;9.20;99.90;;;;;;4999297;28;20061;-84
2024/01/05 06:27:11;;;;;;;6.00;1.50;;;9.30;99.90;;;;;;5016670;28;20103;-84
2024/01/05 06:29:37;;;;;;;3.33;1.30;;;9.30;99.90;;;;;;4999651;28;20443;-84
2024/01/05 06:32:06;;;;;;;3.50;1.55;;;9.30;99.90;;;;;;5015179;28;20036;-85
2024/01/05 06:34:31;;;;;;;5.07;1.65;;;9.30;99.90;;;;;;4998911;28;20026;-84
2024/01/05 06:37:02;;;;;;;5.20;1.98;;;9.30;99.90;;;;;;5000670;28;20485;-84
2024/01/05 06:39:28;;;;;;;3.70;1.15;;;9.30;99.90;;;;;;5019131;28;20121;-82
2024/01/05 06:41:54;;;;;;;4.70;1.30;;;9.40;99.90;;;;;;5036385;28;20040;-84
2024/01/05 06:44:20;;;;;;;3.58;1.15;;;9.40;99.90;;;;;;5002322;28;20036;-84
2024/01/05 06:46:45;;;;;;;4.15;1.10;;;9.40;99.90;;;;;;5019080;28;20025;-84
2024/01/05 06:49:14;;;;;;;3.28;1.25;;;9.40;99.90;;;;;;5018775;28;20572;-83
2024/01/05 06:51:42;;;;;;;3.75;1.20;;;9.40;99.90;;;;;;5003416;28;20128;-86
2024/01/05 06:54:08;;;;;;;5.95;1.27;;;9.50;99.90;;;;;;5037332;28;20036;-83
2024/01/05 06:56:34;;;;;;;5.07;1.38;;;9.50;99.90;;;;;;5019884;28;20033;-83
2024/01/05 06:59:01;;;;;;;3.95;1.23;;;9.50;99.90;;;;;;5002804;28;20029;-83
2024/01/05 07:01:27;;;;;;;4.50;1.40;;;9.50;99.90;;;;;;5018692;28;20026;-83
2024/01/05 07:03:53;;;;;;;5.72;1.45;;;9.50;99.90;;;;;;5003150;28;20089;-84
2024/01/05 07:06:18;;;;;;;5.05;1.60;;;9.50;99.90;;;;;;5037011;28;20083;-84
2024/01/05 07:08:44;;;;;;;6.25;1.70;;;9.50;99.90;;;;;;5019524;28;20100;-84
2024/01/05 07:11:22;;;;;;;4.38;1.20;;;9.40;99.90;;;;;;5003002;28;20033;-84
2024/01/05 07:13:47;;;;;;;4.28;1.08;;;9.40;99.90;;;;;;5019262;28;20029;-85
2024/01/05 07:16:20;;;;;;;3.95;1.20;;;9.40;99.90;;;;;;5019674;28;20025;-84
2024/01/05 07:18:46;;;;;;;5.75;2.40;;;9.40;99.90;;;;;;5021789;28;20035;-84
2024/01/05 07:21:15;;;;;;;4.57;1.58;;;9.50;99.90;;;;;;5013634;28;20081;-84
2024/01/05 07:23:42;;;;;;;3.25;1.20;;;9.50;99.90;;;;;;5026268;28;20049;-84
2024/01/05 07:26:09;;;;;;;4.18;1.73;;;9.50;99.90;;;;;;5019005;28;20101;-84
2024/01/05 07:28:35;;;;;;;4.43;1.08;;;9.50;99.90;;;;;;5018854;28;20079;-84
2024/01/05 07:31:09;;;;;;;3.67;1.38;;;9.50;99.90;;;;;;5019466;28;20124;-84
2024/01/05 07:33:35;;;;;;;4.07;1.48;;;9.50;99.90;;;;;;5005523;28;20072;-84
2024/01/05 07:36:06;;;;;;;3.47;1.02;;;9.50;99.90;;;;;;5003540;28;20025;-84
2024/01/05 07:38:42;;;;;;;4.85;1.10;;;9.50;99.90;;;;;;5003804;28;20429;-84
2024/01/05 07:41:17;;;;;;;2.70;1.13;;;9.50;99.90;;;;;;5013019;28;20009;-84
2024/01/05 07:43:46;;;;;;;3.85;1.20;;;9.60;99.90;;;;;;5055408;28;20025;-83
2024/01/05 07:46:14;;;;;;;3.75;1.05;;;9.50;99.90;;;;;;5051321;28;20049;-84
2024/01/05 07:51:34;;;;;;;3.30;0.98;;;9.50;99.90;;;;;;5021771;28;20034;-83
2024/01/05 07:54:06;;;;;;;4.28;1.35;;;9.40;99.90;;;;;;5019036;28;20049;-83
2024/01/05 07:56:37;;;;;;;1.52;0.80;;;9.30;99.90;;;;;;5001446;28;20032;-83
2024/01/05 07:59:08;;;;;;;;;;;9.30;99.90;;;;;;5018038;28;20028;-84
2024/01/05 08:01:34;;;;;;;2.15;0.50;;;9.30;99.90;;;;;;5001257;28;19917;-84
2024/01/05 08:04:08;;;;;;;1.58;0.40;;;9.20;99.90;;;;;;5017620;28;20103;-83
2024/01/05 08:06:33;;;;;;;1.80;0.40;;;9.20;99.90;;;;;;5034961;28;20373;-83
2024/01/05 08:08:59;;;;;;;0.68;0.30;;;9.10;99.90;;;;;;5017607;28;20026;-83
2024/01/05 08:11:25;;;;;;;0.40;0.20;;;9.10;99.90;;;;;;5000653;28;20041;-83
2024/01/05 08:13:53;;;;;;;0.93;0.30;;;9.10;99.90;;;;;;5000965;28;20101;-89
2024/01/05 08:16:19;;;;;;;0.30;0.20;;;9.10;99.90;;;;;;5017302;28;20057;-84
2024/01/05 08:18:45;;;;;;;1.17;0.43;;;9.20;99.90;;;;;;5017655;28;20358;-85
2024/01/05 08:21:11;;;;;;;0.70;0.40;;;9.20;99.90;;;;;;5000630;28;20490;-84
2024/01/05 08:23:37;;;;;;;0.70;0.40;;;9.20;99.90;;;;;;5049762;28;20040;-83
2024/01/05 08:26:09;;;;;;;2.17;0.55;;;9.20;99.90;;;;;;5000769;28;20117;-83
2024/01/05 08:28:34;;;;;;;0.77;0.28;;;9.20;99.90;;;;;;5016913;28;20065;-83
2024/01/05 08:31:00;;;;;;;0.20;0.20;;;9.10;99.90;;;;;;5017082;28;20037;-83
2024/01/05 08:33:26;;;;;;;0.20;0.20;;;9.20;99.90;;;;;;5016905;28;20397;-84
2024/01/05 08:35:51;;;;;;;1.13;0.28;;;9.10;99.90;;;;;;5000702;28;20036;-83
2024/01/05 08:38:17;;;;;;;0.35;0.20;;;9.10;99.90;;;;;;5000549;28;20046;-83
2024/01/05 08:40:44;;;;;;;0.85;0.30;;;9.10;99.90;;;;;;5000316;28;20474;-83
2024/01/05 08:43:10;;;;;;;2.00;0.35;;;9.10;99.90;;;;;;5016872;28;20030;-84
2024/01/05 08:45:35;;;;;;;1.02;0.20;;;9.10;99.90;;;;;;5000168;28;20385;-83
2024/01/05 08:48:01;;;;;;;1.33;0.30;;;9.00;99.90;;;;;;5017331;28;20104;-83
2024/01/05 08:50:27;;;;;;;0.50;0.30;;;9.00;99.90;;;;;;5000082;28;20095;-83
2024/01/05 08:52:52;;;;;;;0.60;0.20;;;9.10;99.90;;;;;;5000655;28;20035;-83
2024/01/05 08:55:18;;;;;;;1.75;0.30;;;9.10;99.90;;;;;;5016913;28;20116;-84
2024/01/05 08:57:46;;;;;;;1.10;0.25;;;9.00;99.90;;;;;;5017321;28;20029;-83
2024/01/05 09:00:11;;;;;;;0.52;0.25;;;9.00;99.90;;;;;;5016682;28;20530;-84
2024/01/05 09:02:38;;;;;;;2.08;0.30;;;8.90;99.90;;;;;;5001071;28;20034;-83
2024/01/05 09:05:04;;;;;;;2.35;0.60;;;8.80;99.90;;;;;;5017597;28;20029;-84
2024/01/05 09:07:31;;;;;;;0.45;0.30;;;8.80;99.90;;;;;;5018563;28;20454;-84
2024/01/05 09:09:57;;;;;;;2.25;0.60;;;8.80;99.90;;;;;;5031119;28;20034;-84
2024/01/05 09:12:22;;;;;;;0.30;0.30;;;8.80;99.90;;;;;;5057268;28;20025;-84
2024/01/05 09:14:51;;;;;;;1.13;0.38;;;8.80;99.90;;;;;;5065956;28;20038;-84
2024/01/05 09:17:16;;;;;;;0.22;0.22;;;8.80;99.90;;;;;;5026379;28;20025;-84
2024/01/05 09:19:43;;;;;;;1.10;0.30;;;8.80;99.90;;;;;;5001924;28;20117;-83
2024/01/05 09:22:09;;;;;;;0.43;0.30;;;8.80;99.90;;;;;;5016595;28;20025;-83
2024/01/05 09:24:36;;;;;;;1.60;0.32;;;8.80;99.90;;;;;;5011900;28;20057;-84
2024/01/05 09:27:03;;;;;;;0.73;0.32;;;8.70;99.90;;;;;;5013797;28;20041;-84
2024/01/05 09:29:35;;;;;;;0.50;0.22;;;8.70;99.90;;;;;;5013534;28;20078;-83
2024/01/05 09:32:01;;;;;;;0.50;0.30;;;8.60;99.90;;;;;;4996410;28;20033;-84
2024/01/05 09:34:26;;;;;;;0.93;0.20;;;8.60;99.90;;;;;;4996217;28;20037;-84
2024/01/05 09:36:53;;;;;;;0.43;0.20;;;8.50;99.90;;;;;;4995940;28;20026;-84
2024/01/05 09:39:19;;;;;;;0.17;0.10;;;8.50;99.90;;;;;;5013839;28;20053;-84
2024/01/05 09:41:51;;;;;;;0.60;0.30;;;8.40;99.90;;;;;;5012597;28;20461;-84
2024/01/05 09:44:17;;;;;;;0.40;0.20;;;8.40;99.90;;;;;;5012750;28;20556;-84
2024/01/05 09:46:44;;;;;;;0.95;0.28;;;8.30;99.90;;;;;;4996156;28;20113;-84
2024/01/05 09:49:13;;;;;;;1.10;0.30;;;8.30;99.90;;;;;;5012596;28;20104;-83
2024/01/05 09:51:39;;;;;;;0.93;0.30;;;8.30;99.90;;;;;;5012460;28;20084;-83
2024/01/05 09:54:05;;;;;;;0.95;0.30;;;8.30;99.90;;;;;;5013902;28;20056;-83
2024/01/05 09:56:31;;;;;;;0.57;0.30;;;8.30;99.90;;;;;;5013976;28;20026;-84
2024/01/05 09:58:58;;;;;;;0.60;0.20;;;8.30;99.90;;;;;;5014599;28;20026;-84
2024/01/05 10:01:28;;;;;;;0.10;0.10;;;8.30;99.90;;;;;;5012752;28;20038;-83
2024/01/05 10:03:59;;;;;;;0.43;0.10;;;8.30;99.90;;;;;;5012209;28;20033;-84
2024/01/05 10:06:25;;;;;;;0.43;0.10;;;8.20;99.90;;;;;;5012841;28;20261;-85
2024/01/05 10:08:56;;;;;;;0.30;0.17;;;8.20;99.90;;;;;;5013234;28;20033;-84
2024/01/05 10:11:34;;;;;;;0.30;0.10;;;8.20;99.90;;;;;;5014099;28;20037;-82
2024/01/05 10:14:13;;;;;;;0.10;0.10;;;8.20;99.90;;;;;;5021392;28;20025;-83
2024/01/05 10:16:39;;;;;;;1.05;0.55;;;8.20;99.90;;;;;;5001324;28;20470;-83
2024/01/05 10:19:19;;;;;;;0.80;0.20;;;8.20;99.90;;;;;;5000439;28;20033;-83
2024/01/05 10:21:47;;;;;;;0.35;0.10;;;8.20;99.90;;;;;;5017916;28;20069;-82
2024/01/05 10:24:21;;;;;;;0.50;0.20;;;8.20;99.90;;;;;;5017021;28;20136;-83
2024/01/05 10:27:04;;;;;;;0.80;0.30;;;8.20;99.90;;;;;;5016411;28;20034;-82
2024/01/05 10:29:30;;;;;;;1.20;0.50;;;8.20;99.90;;;;;;5017006;28;20026;-83
2024/01/05 10:32:12;;;;;;;0.50;0.30;;;8.10;99.90;;;;;;5001269;28;20394;-82
2024/01/05 10:34:40;;;;;;;1.20;0.40;;;8.10;99.90;;;;;;5021483;28;20037;-82
2024/01/05 10:37:06;;;;;;;2.05;0.25;;;8.10;99.90;;;;;;5039551;28;20013;-82
2024/01/05 10:39:35;;;;;;;0.60;0.30;;;8.10;99.90;;;;;;5038476;28;20026;-83
2024/01/05 10:42:27;;;;;;;2.45;0.50;;;8.10;99.90;;;;;;5033099;28;20131;-84
2024/01/05 10:44:58;;;;;;;;;;;8.10;99.90;;;;;;5014445;28;20030;-83
2024/01/05 10:47:29;;;;;;;;;;;8.10;99.90;;;;;;5027097;28;19977;-84
2024/01/05 10:49:55;;;;;;;1.45;0.60;;;8.10;99.90;;;;;;5018469;28;19917;-84
2024/01/05 10:52:27;;;;;;;0.68;0.40;;;8.10;99.90;;;;;;5015418;28;20480;-83
2024/01/05 10:54:53;;;;;;;1.98;0.80;;;8.10;99.90;;;;;;5015625;28;20112;-83
2024/01/05 10:57:20;;;;;;;0.98;0.80;;;8.10;99.90;;;;;;5015396;28;20441;-82
2024/01/05 10:59:47;;;;;;;1.30;0.80;;;8.10;99.90;;;;;;5015254;28;20033;-83
2024/01/05 11:02:40;;;;;;;1.33;0.65;;;8.10;99.90;;;;;;4999199;28;20037;-84
2024/01/05 11:05:08;;;;;;;0.88;0.50;;;8.00;99.90;;;;;;5014745;28;20038;-84
2024/01/05 11:07:35;;;;;;;0.98;0.60;;;8.10;99.90;;;;;;5015513;28;20026;-84
2024/01/05 11:10:50;;;;;;;0.75;0.60;;;8.10;99.90;;;;;;4999206;28;20034;-84
2024/01/05 11:13:25;;;;;;;1.75;0.55;;;8.10;99.90;;;;;;5011249;28;20065;-84
2024/01/05 11:16:18;;;;;;;1.52;0.80;;;8.10;99.90;;;;;;5016549;28;20042;-84
2024/01/05 11:19:06;;;;;;;1.83;0.80;;;8.20;99.90;;;;;;5016762;28;20025;-84
2024/01/05 11:22:00;;;;;;;0.73;0.52;;;8.10;99.90;;;;;;5015699;28;20081;-84
2024/01/05 11:24:27;;;;;;;0.98;0.70;;;8.20;99.90;;;;;;5013226;28;20037;-84
2024/01/05 11:26:55;;;;;;;1.73;0.70;;;8.20;99.90;;;;;;4999017;28;20025;-83
2024/01/05 11:29:45;;;;;;;2.13;0.88;;;8.20;99.90;;;;;;5015138;28;20033;-84
2024/01/05 11:32:33;;;;;;;1.35;0.70;;;8.20;99.90;;;;;;5015060;28;20025;-84
2024/01/05 11:35:00;;;;;;;1.42;0.80;;;8.20;99.90;;;;;;5016215;28;20080;-83
2024/01/05 11:37:31;;;;;;;0.77;0.60;;;8.20;99.90;;;;;;5014986;28;20116;-82
2024/01/05 11:40:03;;;;;;;1.48;0.70;;;8.20;99.90;;;;;;5015750;28;20034;-82
2024/01/05 11:42:33;;;;;;;2.58;1.20;;;8.30;99.90;;;;;;5014669;28;20048;-82
2024/01/05 11:45:19;;;;;;;1.25;0.60;;;8.30;99.90;;;;;;5014582;28;20024;-82
2024/01/05 11:47:46;;;;;;;1.77;0.70;;;8.20;99.90;;;;;;5032719;28;20042;-84
2024/01/05 11:50:33;;;;;;;2.13;0.93;;;8.30;99.90;;;;;;4997946;28;20034;-83
2024/01/05 11:53:23;;;;;;;1.08;0.70;;;8.30;99.90;;;;;;5014254;28;20018;-83
2024/01/05 11:55:58;;;;;;;1.80;0.85;;;8.30;99.90;;;;;;5014600;28;20121;-83
2024/01/05 11:58:28;;;;;;;1.20;0.77;;;8.30;99.90;;;;;;5016057;28;20025;-84
2024/01/05 12:00:56;;;;;;;1.50;0.90;;;8.30;99.90;;;;;;5015406;28;20029;-82
2024/01/05 12:03:24;;;;;;;1.00;0.65;;;8.20;99.90;;;;;;5016629;28;20018;-82
2024/01/05 12:05:52;;;;;;;2.10;1.10;;;8.30;99.90;;;;;;5034332;28;20014;-83
2024/01/05 12:08:18;;;;;;;0.80;0.75;;;8.30;99.90;;;;;;5036450;28;20030;-83
2024/01/05 12:10:44;;;;;;;0.93;0.80;;;8.30;99.90;;;;;;5032780;28;20026;-83
2024/01/05 12:13:10;;;;;;;2.00;0.93;;;8.30;99.90;;;;;;5050318;28;20060;-84
2024/01/05 12:15:36;;;;;;;0.75;0.60;;;8.40;99.90;;;;;;5016549;28;20076;-82
2024/01/05 12:18:09;;;;;;;1.10;0.77;;;8.40;99.90;;;;;;5014286;28;20053;-82
2024/01/05 12:20:38;;;;;;;0.80;0.70;;;8.40;99.90;;;;;;5015590;28;20034;-83
2024/01/05 12:23:04;;;;;;;1.52;0.70;;;8.40;99.90;;;;;;5014655;28;20038;-82
2024/01/05 12:25:31;;;;;;;1.80;0.65;;;8.50;99.90;;;;;;4996956;28;20052;-83
2024/01/05 12:27:58;;;;;;;1.23;0.80;;;8.40;99.90;;;;;;4997963;28;20098;-83
2024/01/05 12:30:27;;;;;;;1.70;0.75;;;8.50;99.90;;;;;;5013595;28;20053;-83
2024/01/05 12:32:54;;;;;;;1.67;0.95;;;8.50;99.90;;;;;;4997558;28;20116;-84
2024/01/05 12:35:20;;;;;;;2.25;0.98;;;8.40;99.90;;;;;;4996598;28;20473;-82
2024/01/05 12:37:57;;;;;;;1.00;0.88;;;8.40;99.90;;;;;;5013236;28;20075;-83
2024/01/05 12:40:25;;;;;;;1.85;1.00;;;8.40;99.90;;;;;;5013309;28;20554;-83
2024/01/05 12:42:52;;;;;;;1.10;1.00;;;8.40;99.90;;;;;;4996928;28;20113;-86
2024/01/05 12:45:22;;;;;;;1.00;0.80;;;8.40;99.90;;;;;;5012984;28;20071;-83
2024/01/05 12:47:51;;;;;;;1.48;1.10;;;8.40;99.90;;;;;;5013357;28;20109;-83
2024/01/05 12:50:27;;;;;;;1.23;1.02;;;8.40;99.90;;;;;;5014595;28;20493;-83
2024/01/05 12:52:53;;;;;;;2.15;1.00;;;8.40;99.90;;;;;;4996725;28;20026;-83
2024/01/05 12:55:32;;;;;;;1.77;0.93;;;8.40;99.90;;;;;;5013325;28;20041;-83
2024/01/05 12:58:05;;;;;;;0.80;0.80;;;8.40;99.90;;;;;;5012799;28;20018;-83
2024/01/05 13:00:40;;;;;;;1.88;1.08;;;8.50;99.90;;;;;;5012827;28;20034;-83
2024/01/05 13:03:16;;;;;;;1.00;0.90;;;8.50;99.90;;;;;;5014928;28;20044;-82
2024/01/05 13:05:42;;;;;;;1.40;1.10;;;8.50;99.90;;;;;;5014625;28;20097;-84